Time;durP1;ratioP1;P1;durP2;ratioP2;P2;SDS_P1;SDS_P2;PMS_P1;PMS_P2;Temp;Humidity;BMP_temperature;BMP_pressure;BME280_temperature;BME280_humidity;BME280_pressure;Samples;Min_cycle;Max_cycle;Signal;HPM_P1;HPM_P2
2022/11/02 00:00:22;;;;;;;;;;;13.20;99.90;;;;;;5071778;28;19924;-67
2022/11/02 00:02:47;;;;;;;;;;;13.10;99.90;;;;;;5072114;28;19931;-67
2022/11/02 00:05:13;;;;;;;;;;;13.10;99.90;;;;;;5104324;28;20394;-67
2022/11/02 00:07:40;;;;;;;;;;;13.10;99.90;;;;;;5071032;28;19925;-68
2022/11/02 00:10:05;;;;;;;;;;;13.00;99.90;;;;;;5104588;28;19925;-68
2022/11/02 00:12:31;;;;;;;;;;;13.00;99.90;;;;;;5104862;28;20445;-67
2022/11/02 00:14:57;;;;;;;;;;;13.00;99.90;;;;;;5087908;28;19978;-67
2022/11/02 00:17:22;;;;;;;;;;;13.00;99.90;;;;;;5071915;28;19928;-69
2022/11/02 00:19:48;;;;;;;;;;;12.90;99.90;;;;;;5070967;28;19999;-68
2022/11/02 00:22:13;;;;;;;;;;;12.90;99.90;;;;;;5071460;28;19924;-67
2022/11/02 00:24:39;;;;;;;;;;;12.90;99.90;;;;;;5087796;28;19939;-66
2022/11/02 00:27:05;;;;;;;;;;;12.90;99.90;;;;;;5087449;28;19954;-68
2022/11/02 00:29:32;;;;;;;;;;;12.80;99.90;;;;;;5071994;28;19936;-68
2022/11/02 00:31:58;;;;;;;;;;;12.80;99.90;;;;;;5072111;28;19924;-68
2022/11/02 00:34:24;;;;;;;;;;;12.70;99.90;;;;;;5086903;28;19920;-68
2022/11/02 00:36:50;;;;;;;;;;;12.60;99.90;;;;;;5104133;28;19978;-69
2022/11/02 00:39:15;;;;;;;;;;;12.50;99.90;;;;;;5071820;28;19924;-68
2022/11/02 00:41:42;;;;;;;;;;;12.50;99.90;;;;;;5070920;28;19931;-69
2022/11/02 00:44:07;;;;;;;;;;;12.30;99.90;;;;;;5087275;28;19924;-69
2022/11/02 00:46:33;;;;;;;;;;;12.30;99.90;;;;;;5104774;28;20296;-68
2022/11/02 00:48:58;;;;;;;;;;;12.20;99.90;;;;;;5087646;28;19925;-68
2022/11/02 00:51:24;;;;;;;;;;;12.10;99.90;;;;;;5071493;28;19925;-68
2022/11/02 00:53:49;;;;;;;;;;;12.00;99.90;;;;;;5104149;28;19928;-68
2022/11/02 00:56:15;;;;;;;;;;;12.00;99.90;;;;;;5108244;28;19925;-68
2022/11/02 00:58:40;;;;;;;;;;;12.00;99.90;;;;;;5074444;28;20356;-68
2022/11/02 01:01:06;;;;;;;;;;;12.00;99.90;;;;;;5091333;28;20347;-68
2022/11/02 01:03:32;;;;;;;;;;;11.90;99.90;;;;;;5091112;28;20019;-68
2022/11/02 01:05:58;;;;;;;;;;;11.90;99.90;;;;;;5108726;28;20008;-70
2022/11/02 01:08:23;;;;;;;;;;;11.90;99.90;;;;;;5108369;28;20019;-68
2022/11/02 01:10:49;;;;;;;;;;;11.90;99.90;;;;;;5074725;28;19924;-68
2022/11/02 01:13:15;;;;;;;;;;;11.80;99.90;;;;;;5074010;28;20427;-69
2022/11/02 01:15:40;;;;;;;;;;;11.80;99.90;;;;;;5075561;28;19929;-68
2022/11/02 01:18:06;;;;;;;;;;;11.80;99.90;;;;;;5074371;28;19924;-68
2022/11/02 01:20:31;;;;;;;;;;;11.70;99.90;;;;;;5075339;28;19925;-68
2022/11/02 01:22:58;;;;;;;;;;;11.70;99.90;;;;;;5107815;28;20325;-67
2022/11/02 01:25:24;;;;;;;;;;;11.70;99.90;;;;;;5075006;28;19924;-67
2022/11/02 01:27:49;;;;;;;;;;;11.70;99.90;;;;;;5091316;28;19931;-66
2022/11/02 01:30:15;;;;;;;;;;;11.70;99.90;;;;;;5073532;28;19924;-67
2022/11/02 01:32:40;;;;;;;;;;;11.60;99.90;;;;;;5090786;28;19929;-68
2022/11/02 01:35:06;;;;;;;;;;;11.60;99.90;;;;;;5090844;28;19924;-66
2022/11/02 01:37:32;;;;;;;;;;;11.60;99.90;;;;;;5107542;28;20022;-66
2022/11/02 01:39:57;;;;;;;;;;;11.50;99.90;;;;;;5073706;28;20007;-67
2022/11/02 01:42:24;;;;;;;;;;;11.50;99.90;;;;;;5074650;28;19931;-67
2022/11/02 01:44:50;;;;;;;;;;;11.50;99.90;;;;;;5074845;28;19924;-66
2022/11/02 01:47:22;;;;;;;;;;;11.40;99.90;;;;;;5090367;28;19925;-68
2022/11/02 01:49:49;;;;;;;;;;;11.40;99.90;;;;;;5073980;28;19931;-66
2022/11/02 01:52:29;;;;;;;;;;;11.40;99.90;;;;;;5107615;28;19924;-71
2022/11/02 01:55:02;;;;;;;;;;;11.30;99.90;;;;;;5073455;28;19974;-68
2022/11/02 01:57:28;;;;;;;;;;;11.30;99.90;;;;;;5073815;28;19947;-67
2022/11/02 02:00:04;;;;;;;;;;;11.30;99.90;;;;;;5090196;28;19925;-67
2022/11/02 02:02:31;;;;;;;;;;;11.30;99.90;;;;;;5107185;28;19924;-67
2022/11/02 02:05:07;;;;;;;;;;;11.30;99.90;;;;;;5106953;28;19925;-68
2022/11/02 02:07:34;;;;;;;;;;;11.30;99.90;;;;;;5088862;28;19998;-68
2022/11/02 02:09:59;;;;;;;;;;;11.30;99.90;;;;;;5107407;28;20290;-68
2022/11/02 02:12:26;;;;;;;;;;;11.30;99.90;;;;;;5106614;28;20011;-68
2022/11/02 02:14:52;;;;;;;;;;;11.20;99.90;;;;;;5107398;28;20023;-69
2022/11/02 02:17:23;;;;;;;;;;;11.20;99.90;;;;;;5089966;28;20482;-73
2022/11/02 02:19:52;;;;;;;;;;;11.10;99.90;;;;;;5073291;28;19924;-68
2022/11/02 02:22:20;;;;;;;;;;;11.00;99.90;;;;;;5072736;28;19967;-71
2022/11/02 02:25:05;;;;;;;;;;;11.10;99.90;;;;;;5073171;28;19973;-67
2022/11/02 02:27:42;;;;;;;;;;;11.10;99.90;;;;;;5072487;28;19928;-67
2022/11/02 02:30:09;;;;;;;;;;;11.10;99.90;;;;;;5073184;28;19924;-67
2022/11/02 02:32:45;;;;;;;;;;;11.10;99.90;;;;;;5089505;28;19931;-67
2022/11/02 02:35:14;;;;;;;;;;;11.10;99.90;;;;;;5106604;28;20322;-68
2022/11/02 02:37:45;;;;;;;;;;;11.20;99.90;;;;;;5073457;28;20022;-67
2022/11/02 02:40:37;;;;;;;;;;;11.20;99.90;;;;;;5072640;28;19943;-67
2022/11/02 02:43:09;;;;;;;;;;;11.10;99.90;;;;;;5054660;28;20448;-67
2022/11/02 02:45:46;;;;;;;;;;;11.10;99.90;;;;;;5072546;28;20299;-66
2022/11/02 02:48:15;;;;;;;;;;;11.10;99.90;;;;;;5072481;28;19924;-67
2022/11/02 02:50:52;;;;;;;;;;;11.10;99.90;;;;;;5106395;28;19963;-67
2022/11/02 02:53:19;;;;;;;;;;;11.10;99.90;;;;;;5073186;28;19931;-66
2022/11/02 02:55:46;;;;;;;;;;;11.00;99.90;;;;;;5073121;28;19931;-66
2022/11/02 02:58:23;;;;;;;;;;;11.00;99.90;;;;;;5088987;28;19925;-67
2022/11/02 03:00:51;;;;;;;;;;;11.00;99.90;;;;;;5073420;28;19932;-66
2022/11/02 03:03:22;;;;;;;;;;;11.10;99.90;;;;;;5073131;28;20349;-67
2022/11/02 03:05:59;;;;;;;;;;;11.10;99.90;;;;;;5072402;28;19990;-66
2022/11/02 03:08:25;;;;;;;;;;;11.10;99.90;;;;;;5105735;28;20478;-70
2022/11/02 03:10:55;;;;;;;;;;;11.20;99.90;;;;;;5072252;28;20015;-66
2022/11/02 03:13:33;;;;;;;;;;;11.20;99.90;;;;;;5073431;28;19928;-67
2022/11/02 03:16:05;;;;;;;;;;;11.20;99.90;;;;;;5088916;28;19924;-66
2022/11/02 03:18:40;;;;;;;;;;;11.20;99.90;;;;;;5088670;28;19935;-66
2022/11/02 03:21:11;;;;;;;;;;;11.10;99.90;;;;;;5072239;28;19931;-66
2022/11/02 03:23:40;;;;;;;;;;;11.10;99.90;;;;;;5071585;28;19950;-66
2022/11/02 03:26:18;;;;;;;;;;;11.10;99.90;;;;;;5072920;28;20390;-66
2022/11/02 03:28:51;;;;;;;;;;;11.00;99.90;;;;;;5072677;28;19935;-66
2022/11/02 03:31:23;;;;;;;;;;;11.00;99.90;;;;;;5073028;28;20367;-65
2022/11/02 03:33:59;;;;;;;;;;;11.10;99.90;;;;;;5105042;28;19924;-67
2022/11/02 03:36:45;;;;;;;;;;;11.00;99.90;;;;;;5088384;28;19924;-67
2022/11/02 03:39:12;;;;;;;;;;;11.00;99.90;;;;;;5051001;28;20084;-67
2022/11/02 03:41:40;;;;;;;;;;;11.00;99.90;;;;;;5072201;28;19932;-67
2022/11/02 03:44:07;;;;;;;;;;;11.00;99.90;;;;;;5088173;28;19928;-67
2022/11/02 03:46:35;;;;;;;;;;;11.00;99.90;;;;;;5105257;28;19924;-66
2022/11/02 03:49:03;;;;;;;;;;;11.00;99.90;;;;;;5071716;28;19935;-67
2022/11/02 03:51:30;;;;;;;;;;;11.00;99.90;;;;;;5104863;28;19924;-70
2022/11/02 03:54:05;;;;;;;;;;;11.00;99.90;;;;;;5104853;28;20368;-67
2022/11/02 03:56:33;;;;;;;;;;;10.90;99.90;;;;;;5104834;28;19974;-69
2022/11/02 03:58:59;;;;;;;;;;;10.90;99.90;;;;;;5070348;28;20383;-66
2022/11/02 04:01:26;;;;;;;;;;;10.90;99.90;;;;;;5071922;28;19925;-67
2022/11/02 04:03:51;;;;;;;;;;;10.90;99.90;;;;;;5070495;28;19931;-67
2022/11/02 04:06:17;;;;;;;;;;;10.90;99.90;;;;;;5104758;28;19925;-67
2022/11/02 04:08:44;;;;;;;;;;;10.90;99.90;;;;;;5104755;28;20406;-67
2022/11/02 04:16:39;;;;;;;;;;;10.80;99.90;;;;;;5070942;28;19974;-67
2022/11/02 04:27:17;;;;;;;;;;;10.80;99.90;;;;;;5070771;28;20019;-66
2022/11/02 04:29:43;;;;;;;;;;;10.70;99.90;;;;;;5075448;28;19982;-66
2022/11/02 04:32:09;;;;;;;;;;;10.80;99.90;;;;;;5094545;28;19924;-66
2022/11/02 04:34:35;;;;;;;;;;;10.80;99.90;;;;;;5077602;28;20497;-71
2022/11/02 04:38:38;;;;;;;;;;;10.90;99.90;;;;;;5078848;28;20023;-66
2022/11/02 04:39:46;;;;;;;;;;;10.90;99.90;;;;;;5090982;28;19938;-66
2022/11/02 04:42:12;;;;;;;;;;;10.90;99.90;;;;;;5094266;28;19997;-68
2022/11/02 04:44:37;;;;;;;;;;;10.90;99.90;;;;;;5093594;28;19930;-68
2022/11/02 04:47:03;;;;;;;;;;;10.90;99.90;;;;;;5078729;28;19947;-68
2022/11/02 04:49:29;;;;;;;;;;;10.90;99.90;;;;;;5077179;28;19972;-69
2022/11/02 04:51:54;;;;;;;;;;;10.90;99.90;;;;;;5111269;28;20022;-69
2022/11/02 04:54:22;;;;;;;;;;;10.90;99.90;;;;;;5077786;28;20147;-68
2022/11/02 04:56:47;;;;;;;;;;;10.90;99.90;;;;;;5078014;28;19938;-68
2022/11/02 04:59:13;;;;;;;;;;;10.80;99.90;;;;;;5110960;28;20294;-69
2022/11/02 05:01:38;;;;;;;;;;;10.80;99.90;;;;;;5111036;28;20007;-71
2022/11/02 05:04:04;;;;;;;;;;;10.80;99.90;;;;;;5093759;28;20016;-68
2022/11/02 05:06:30;;;;;;;;;;;10.70;99.90;;;;;;5078556;28;19932;-67
2022/11/02 05:08:55;;;;;;;;;;;10.70;99.90;;;;;;5111168;28;20027;-66
2022/11/02 05:11:21;;;;;;;;;;;10.70;99.90;;;;;;5111539;28;19928;-66
2022/11/02 05:13:46;;;;;;;;;;;10.70;99.90;;;;;;5111077;28;19978;-66
2022/11/02 05:16:13;;;;;;;;;;;10.70;99.90;;;;;;5076701;28;19924;-68
2022/11/02 05:18:39;;;;;;;;;;;10.70;99.90;;;;;;5078403;28;19931;-70
2022/11/02 05:21:05;;;;;;;;;;;10.70;99.90;;;;;;5093737;28;20011;-67
2022/11/02 05:23:31;;;;;;;;;;;10.70;99.90;;;;;;5076959;28;19936;-69
2022/11/02 05:26:00;;;;;;;;;;;10.70;99.90;;;;;;5077743;28;19924;-68
2022/11/02 05:28:27;;;;;;;;;;;10.70;99.90;;;;;;5077341;28;19954;-68
2022/11/02 05:30:52;;;;;;;;;;;10.70;99.90;;;;;;5110844;28;19966;-68
2022/11/02 05:33:18;;;;;;;;;;;10.70;99.90;;;;;;5111028;28;19975;-68
2022/11/02 05:35:44;;;;;;;;;;;10.70;99.90;;;;;;5110893;28;19925;-70
2022/11/02 05:38:09;;;;;;;;;;;10.70;99.90;;;;;;5077275;28;20034;-68
2022/11/02 05:40:39;;;;;;;;;;;10.70;99.90;;;;;;5075215;28;20390;-67
2022/11/02 05:43:06;;;;;;;;;;;10.60;99.90;;;;;;5073393;28;19931;-67
2022/11/02 05:45:31;;;;;;;;;;;10.60;99.90;;;;;;5073890;28;20375;-67
2022/11/02 05:48:00;;;;;;;;;;;10.60;99.90;;;;;;5107276;28;19967;-67
2022/11/02 05:50:26;;;;;;;;;;;10.60;99.90;;;;;;5075070;28;20342;-66
2022/11/02 05:52:52;;;;;;;;;;;10.50;99.90;;;;;;5073506;28;19980;-67
2022/11/02 05:55:17;;;;;;;;;;;10.60;99.90;;;;;;5090603;28;19924;-68
2022/11/02 05:57:48;;;;;;;;;;;10.60;99.90;;;;;;5074402;28;19932;-66
2022/11/02 06:00:14;;;;;;;;;;;10.60;99.90;;;;;;5073391;28;20344;-67
2022/11/02 06:02:40;;;;;;;;;;;10.60;99.90;;;;;;5107138;28;19974;-67
2022/11/02 06:05:05;;;;;;;;;;;10.60;99.90;;;;;;5089656;28;19924;-67
2022/11/02 06:07:31;;;;;;;;;;;10.60;99.90;;;;;;5107220;28;19934;-67
2022/11/02 06:09:56;;;;;;;;;;;10.60;99.90;;;;;;5089889;28;19989;-66
2022/11/02 06:12:22;;;;;;;;;;;10.60;99.90;;;;;;5107313;28;20371;-67
2022/11/02 06:14:47;;;;;;;;;;;10.60;99.90;;;;;;5106437;28;19990;-70
2022/11/02 06:17:13;;;;;;;;;;;10.60;99.90;;;;;;5106775;28;20026;-67
2022/11/02 06:19:39;;;;;;;;;;;10.60;99.90;;;;;;5089968;28;20367;-66
2022/11/02 06:22:04;;;;;;;;;;;10.60;99.90;;;;;;5106798;28;19925;-68
2022/11/02 06:24:30;;;;;;;;;;;10.60;99.90;;;;;;5089745;28;19924;-68
2022/11/02 06:26:55;;;;;;;;;;;10.60;99.90;;;;;;5089677;28;20404;-67
2022/11/02 06:29:21;;;;;;;;;;;10.60;99.90;;;;;;5073980;28;19924;-66
2022/11/02 06:31:46;;;;;;;;;;;10.60;99.90;;;;;;5106502;28;20065;-68
2022/11/02 06:34:12;;;;;;;;;;;10.60;99.90;;;;;;5089132;28;19925;-68
2022/11/02 06:36:37;;;;;;;;;;;10.60;99.90;;;;;;5072769;28;19931;-68
2022/11/02 06:39:03;;;;;;;;;;;10.70;99.90;;;;;;5072185;28;20355;-69
2022/11/02 06:41:28;;;;;;;;;;;10.70;99.90;;;;;;5072584;28;19934;-68
2022/11/02 06:43:55;;;;;;;;;;;10.70;99.90;;;;;;5088434;28;20019;-68
2022/11/02 06:46:20;;;;;;;;;;;10.70;99.90;;;;;;5106204;28;19928;-67
2022/11/02 06:48:46;;;;;;;;;;;10.70;99.90;;;;;;5073622;28;19932;-68
2022/11/02 06:51:12;;;;;;;;;;;10.70;99.90;;;;;;5072978;28;19968;-69
2022/11/02 06:53:38;;;;;;;;;;;10.70;99.90;;;;;;5072968;28;19932;-69
2022/11/02 06:56:04;;;;;;;;;;;10.70;99.90;;;;;;5088753;28;19929;-68
2022/11/02 06:58:29;;;;;;;;;;;10.70;99.90;;;;;;5105831;28;19983;-67
2022/11/02 07:00:56;;;;;;;;;;;10.80;99.90;;;;;;5071567;28;19971;-71
2022/11/02 07:03:22;;;;;;;;;;;10.80;99.90;;;;;;5071945;28;19925;-68
2022/11/02 07:05:51;;;;;;;;;;;10.70;99.90;;;;;;5106315;28;19936;-68
2022/11/02 07:08:17;;;;;;;;;;;10.70;99.90;;;;;;5071814;28;20320;-68
2022/11/02 07:10:43;;;;;;;;;;;10.70;99.90;;;;;;5073158;28;19932;-69
2022/11/02 07:13:08;;;;;;;;;;;10.80;99.90;;;;;;5088546;28;19925;-69
2022/11/02 07:15:34;;;;;;;;;;;10.80;99.90;;;;;;5105887;28;20261;-68
2022/11/02 07:17:59;;;;;;;;;;;10.90;99.90;;;;;;5072165;28;19924;-70
2022/11/02 07:20:25;;;;;;;;;;;10.90;99.90;;;;;;5071473;28;20287;-71
2022/11/02 07:22:55;;;;;;;;;;;10.90;99.90;;;;;;5072708;28;19929;-66
2022/11/02 07:25:20;;;;;;;;;;;10.90;99.90;;;;;;5071013;28;19935;-65
2022/11/02 07:27:46;;;;;;;;;;;11.00;99.90;;;;;;5071757;28;19928;-65
2022/11/02 07:30:12;;;;;;;;;;;11.00;99.90;;;;;;5071497;28;20053;-65
2022/11/02 07:32:38;;;;;;;;;;;11.00;99.90;;;;;;5071407;28;19924;-65
2022/11/02 07:35:04;;;;;;;;;;;11.00;99.90;;;;;;5072288;28;19924;-66
2022/11/02 07:37:29;;;;;;;;;;;11.00;99.90;;;;;;5088002;28;20371;-65
2022/11/02 07:39:55;;;;;;;;;;;10.90;99.90;;;;;;5105238;28;19924;-64
2022/11/02 07:42:21;;;;;;;;;;;11.00;99.90;;;;;;5072058;28;19929;-66
2022/11/02 07:44:46;;;;;;;;;;;10.90;99.90;;;;;;5072661;28;19924;-65
2022/11/02 07:47:12;;;;;;;;;;;10.90;99.90;;;;;;5071169;28;19925;-68
2022/11/02 07:49:37;;;;;;;;;;;10.90;99.90;;;;;;5072922;28;20022;-65
2022/11/02 07:52:03;;;;;;;;;;;10.80;99.90;;;;;;5072163;28;20030;-65
2022/11/02 07:54:28;;;;;;;;;;;10.90;99.90;;;;;;5088611;28;20550;-64
2022/11/02 07:56:54;;;;;;;;;;;10.80;99.90;;;;;;5072485;28;20026;-66
2022/11/02 07:59:19;;;;;;;;;;;10.90;99.90;;;;;;5072205;28;19967;-65
2022/11/02 08:01:45;;;;;;;;;;;10.80;99.90;;;;;;5088113;28;19931;-66
2022/11/02 08:04:11;;;;;;;;;;;10.80;99.90;;;;;;5087113;28;19928;-65
2022/11/02 08:06:36;;;;;;;;;;;10.80;99.90;;;;;;5105207;28;19989;-66
2022/11/02 08:09:02;;;;;;;;;;;10.90;99.90;;;;;;5071160;28;19951;-67
2022/11/02 08:11:28;;;;;;;;;;;10.80;99.90;;;;;;5072445;28;20019;-66
2022/11/02 08:13:53;;;;;;;;;;;10.90;99.90;;;;;;5105137;28;19924;-66
2022/11/02 08:16:19;;;;;;;;;;;11.00;99.90;;;;;;5087621;28;20360;-66
2022/11/02 08:18:44;;;;;;;;;;;11.00;99.90;;;;;;5105211;28;19924;-68
2022/11/02 08:21:10;;;;;;;;;;;11.10;99.90;;;;;;5087633;28;19933;-67
2022/11/02 08:23:35;;;;;;;;;;;11.20;99.90;;;;;;5070955;28;19925;-67
2022/11/02 08:26:01;;;;;;;;;;;11.40;99.90;;;;;;5071158;28;19929;-66
2022/11/02 08:28:30;;;;;;;;;;;11.40;99.90;;;;;;5071833;28;19970;-64
2022/11/02 08:30:56;;;;;;;;;;;11.60;99.90;;;;;;5072302;28;19977;-65
2022/11/02 08:33:22;;;;;;;;;;;11.80;99.90;;;;;;5071883;28;19925;-67
2022/11/02 08:35:47;;;;;;;;;;;11.90;99.90;;;;;;5104889;28;19931;-67
2022/11/02 08:38:13;;;;;;;;;;;12.00;99.90;;;;;;5070579;28;20426;-65
2022/11/02 08:40:39;;;;;;;;;;;12.10;99.90;;;;;;5104687;28;19945;-66
2022/11/02 08:43:06;;;;;;;;;;;12.20;99.90;;;;;;5071970;28;19924;-66
2022/11/02 08:45:33;;;;;;;;;;;12.40;99.90;;;;;;5070479;28;19932;-66
2022/11/02 08:47:58;;;;;;;;;;;12.50;99.90;;;;;;5070784;28;20302;-65
2022/11/02 08:50:25;;;;;;;;;;;12.60;99.90;;;;;;5054056;28;19924;-67
2022/11/02 08:52:50;;;;;;;;;;;12.60;99.90;;;;;;5071769;28;20489;-67
2022/11/02 08:55:16;;;;;;;;;;;12.50;99.90;;;;;;5086813;28;19964;-65
2022/11/02 08:57:45;;;;;;;;;;;12.50;99.90;;;;;;5071764;28;19924;-64
2022/11/02 09:00:10;;;;;;;;;;;12.50;99.90;;;;;;5103330;28;19928;-66
2022/11/02 09:02:36;;;;;;;;;;;12.50;99.90;;;;;;5071401;28;19925;-64
2022/11/02 09:05:02;;;;;;;;;;;12.40;99.90;;;;;;5070726;28;19930;-64
2022/11/02 09:07:27;;;;;;;;;;;12.50;99.90;;;;;;5070551;28;19924;-65
2022/11/02 09:09:53;;;;;;;;;;;12.50;99.90;;;;;;5070876;28;19931;-64
2022/11/02 09:12:19;;;;;;;;;;;12.40;99.90;;;;;;5104213;28;19932;-64
2022/11/02 09:14:44;;;;;;;;;;;12.40;99.90;;;;;;5070864;28;19924;-66
2022/11/02 09:17:10;;;;;;;;;;;12.40;99.90;;;;;;5107773;28;20315;-63
2022/11/02 09:19:35;;;;;;;;;;;12.40;99.90;;;;;;5073762;28;20016;-64
2022/11/02 09:22:01;;;;;;;;;;;12.50;99.90;;;;;;5074224;28;19928;-65
2022/11/02 09:24:27;;;;;;;;;;;12.50;99.90;;;;;;5106277;28;19924;-65
2022/11/02 09:26:52;;;;;;;;;;;12.60;99.90;;;;;;5107621;28;19931;-65
2022/11/02 09:29:18;;;;;;;;;;;12.60;99.90;;;;;;5073657;28;20359;-65
2022/11/02 09:31:43;;;;;;;;;;;12.70;99.90;;;;;;5074917;28;19924;-62
2022/11/02 09:34:09;;;;;;;;;;;12.70;99.90;;;;;;5107306;28;19991;-65
2022/11/02 09:36:34;;;;;;;;;;;12.70;99.90;;;;;;5090217;28;20463;-66
2022/11/02 09:39:00;;;;;;;;;;;12.80;99.90;;;;;;5090726;28;19928;-64
2022/11/02 09:41:31;;;;;;;;;;;12.80;99.90;;;;;;5090443;28;19924;-64
2022/11/02 09:44:03;;;;;;;;;;;12.80;99.90;;;;;;5071201;28;19924;-66
2022/11/02 09:46:30;;;;;;;;;;;12.90;99.90;;;;;;5074419;28;19931;-66
2022/11/02 09:48:58;;;;;;;;;;;13.00;99.90;;;;;;5073388;28;20329;-66
2022/11/02 09:51:26;;;;;;;;;;;13.00;99.90;;;;;;5074155;28;20358;-66
2022/11/02 09:53:51;;;;;;;;;;;13.00;99.90;;;;;;5073572;28;19924;-66
2022/11/02 09:56:20;;;;;;;;;;;13.00;99.90;;;;;;5073454;28;19925;-65
2022/11/02 09:58:49;;;;;;;;;;;13.00;99.90;;;;;;5073262;28;19925;-67
2022/11/02 10:01:25;;;;;;;;;;;12.80;99.90;;;;;;5073285;28;20024;-65
2022/11/02 10:04:09;;;;;;;;;;;12.90;99.90;;;;;;5073745;28;20161;-65
2022/11/02 10:06:36;;;;;;;;;;;13.00;99.90;;;;;;5073239;28;20291;-66
2022/11/02 10:09:22;;;;;;;;;;;13.00;99.90;;;;;;5074648;28;20280;-67
2022/11/02 10:11:48;;;;;;;;;;;13.00;99.90;;;;;;5073399;28;19925;-67
2022/11/02 10:14:13;;;;;;;;;;;12.90;99.90;;;;;;5074333;28;20014;-65
2022/11/02 10:16:45;;;;;;;;;;;12.90;99.90;;;;;;5089677;28;19924;-66
2022/11/02 10:19:13;;;;;;;;;;;12.90;99.90;;;;;;5073405;28;20028;-68
2022/11/02 10:21:41;;;;;;;;;;;13.00;99.90;;;;;;5106633;28;19930;-66
2022/11/02 10:24:13;;;;;;;;;;;13.00;99.90;;;;;;5105928;28;20062;-65
2022/11/02 10:26:42;;;;;;;;;;;13.10;99.90;;;;;;5073233;28;19978;-66
2022/11/02 10:29:30;;;;;;;;;;;13.10;99.90;;;;;;5074281;28;20402;-65
2022/11/02 10:31:56;;;;;;;;;;;13.10;99.90;;;;;;5072670;28;20015;-66
2022/11/02 10:34:23;;;;;;;;;;;13.10;99.90;;;;;;5073923;28;20028;-65
2022/11/02 10:37:07;;;;;;;;;;;13.00;99.90;;;;;;5070232;28;20371;-66
2022/11/02 10:39:41;;;;;;;;;;;13.00;99.90;;;;;;5104652;28;19924;-66
2022/11/02 10:42:27;;;;;;;;;;;12.90;99.90;;;;;;5071914;28;19924;-66
2022/11/02 10:45:08;;;;;;;;;;;12.80;99.90;;;;;;5087458;28;20004;-65
2022/11/02 10:47:38;;;;;;;;;;;12.70;99.90;;;;;;5104046;28;19958;-65
2022/11/02 10:50:23;;;;;;;;;;;12.60;99.90;;;;;;5072820;28;20244;-65
2022/11/02 10:52:48;;;;;;;;;;;12.60;99.90;;;;;;5072160;28;19933;-66
2022/11/02 10:55:24;;;;;;;;;;;12.50;99.90;;;;;;5072369;28;20236;-66
2022/11/02 10:57:51;;;;;;;;;;;12.90;99.90;;;;;;5073228;28;19932;-65
2022/11/02 11:00:35;;;;;;;;;;;12.50;99.90;;;;;;5072812;28;19949;-65
2022/11/02 11:03:05;;;;;;;;;;;12.40;99.90;;;;;;5088856;28;20019;-68
2022/11/02 11:05:32;;;;;;;;;;;12.50;99.90;;;;;;5072277;28;20395;-65
2022/11/02 11:07:59;;;;;;;;;;;12.50;99.90;;;;;;5106089;28;20299;-65
2022/11/02 11:10:24;;;;;;;;;;;12.50;99.90;;;;;;5072759;28;19925;-64
2022/11/02 11:12:50;;;;;;;;;;;12.60;99.90;;;;;;5072492;28;19950;-66
2022/11/02 11:15:24;;;;;;;;;;;12.80;99.90;;;;;;5055320;28;19925;-66
2022/11/02 11:17:50;;;;;;;;;;;13.00;99.90;;;;;;5071782;28;20115;-66
2022/11/02 11:20:24;;;;;;;;;;;13.20;99.90;;;;;;5072607;28;19925;-66
2022/11/02 11:23:06;;;;;;;;;;;13.40;99.90;;;;;;5071072;28;19981;-65
2022/11/02 11:25:31;;;;;;;;;;;13.50;99.90;;;;;;5072443;28;19925;-66
2022/11/02 11:27:58;;;;;;;;;;;13.50;99.90;;;;;;5088316;28;20299;-65
2022/11/02 11:30:23;;;;;;;;;;;13.50;99.90;;;;;;5072760;28;20047;-65
2022/11/02 11:32:49;;;;;;;;;;;13.60;99.90;;;;;;5072303;28;20425;-66
2022/11/02 11:35:16;;;;;;;;;;;13.70;99.90;;;;;;5071549;28;19925;-68
2022/11/02 11:37:50;;;;;;;;;;;13.70;99.90;;;;;;5072096;28;20342;-66
2022/11/02 11:40:17;;;;;;;;;;;13.70;99.90;;;;;;5071735;28;19967;-66
2022/11/02 11:42:43;;;;;;;;;;;13.70;99.90;;;;;;5071998;28;19924;-67
2022/11/02 11:45:28;;;;;;;;;;;13.80;99.90;;;;;;5072591;28;19951;-67
2022/11/02 11:47:56;;;;;;;;;;;14.00;99.90;;;;;;5069784;28;19960;-66
2022/11/02 11:50:22;;;;;;;;;;;14.20;99.90;;;;;;5105306;28;20291;-66
2022/11/02 11:53:06;;;;;;;;;;;14.20;99.90;;;;;;5087843;28;19924;-66
2022/11/02 11:55:32;;;;;;;;;;;14.30;99.90;;;;;;5071113;28;19924;-67
2022/11/02 11:58:17;;;;;;;;;;;14.40;99.90;;;;;;5053857;28;19924;-66
2022/11/02 12:00:42;;;;;;;;;;;14.40;99.90;;;;;;5070848;28;19925;-63
2022/11/02 12:03:12;;;;;;;;;;;14.40;99.90;;;;;;5087662;28;19925;-67
2022/11/02 12:05:52;;;;;;;;;;;14.40;99.90;;;;;;5071903;28;20007;-65
2022/11/02 12:08:17;;;;;;;;;;;14.40;99.90;;;;;;5072045;28;19931;-67
2022/11/02 12:10:43;;;;;;;;;;;14.40;99.90;;;;;;5104615;28;19924;-66
2022/11/02 12:13:21;;;;;;;;;;;14.40;99.90;;;;;;5071137;28;19994;-67
2022/11/02 12:15:50;;;;;;;;;;;14.40;99.90;;;;;;5071558;28;19925;-67
2022/11/02 12:18:25;;;;;;;;;;;14.40;99.90;;;;;;5072039;28;19924;-66
2022/11/02 12:20:59;;;;;;;;;;;14.40;99.90;;;;;;5071298;28;20027;-67
2022/11/02 12:23:31;;;;;;;;;;;14.30;99.90;;;;;;5070975;28;19924;-67
2022/11/02 12:26:15;;;;;;;;;;;14.30;99.90;;;;;;5070261;28;20524;-66
2022/11/02 12:28:41;;;;;;;;;;;14.30;99.90;;;;;;5070424;28;19932;-68
2022/11/02 12:31:06;;;;;;;;;;;14.20;99.90;;;;;;5071458;28;19928;-67
2022/11/02 12:33:55;;;;;;;;;;;14.10;99.90;;;;;;5071448;28;19931;-66
2022/11/02 12:36:23;;;;;;;;;;;14.10;99.90;;;;;;5069312;28;19929;-67
2022/11/02 12:39:07;;;;;;;;;;;14.10;99.90;;;;;;5070171;28;20035;-68
2022/11/02 12:41:37;;;;;;;;;;;14.10;99.90;;;;;;5104153;28;19969;-68
2022/11/02 12:44:06;;;;;;;;;;;14.00;99.90;;;;;;5103287;28;20003;-67
2022/11/02 12:46:38;;;;;;;;;;;14.10;99.90;;;;;;5071379;28;20420;-68
2022/11/02 12:49:06;;;;;;;;;;;14.20;99.90;;;;;;5071582;28;19932;-67
2022/11/02 12:51:47;;;;;;;;;;;14.30;99.90;;;;;;5073913;28;19924;-67
2022/11/02 12:54:19;;;;;;;;;;;14.30;99.90;;;;;;5108389;28;19924;-66
2022/11/02 12:56:46;;;;;;;;;;;14.40;99.90;;;;;;5074165;28;19931;-66
2022/11/02 12:59:15;;;;;;;;;;;14.40;99.90;;;;;;5074117;28;20397;-67
2022/11/02 13:01:42;;;;;;;;;;;14.40;99.90;;;;;;5074445;28;19935;-71
2022/11/02 13:04:29;;;;;;;;;;;14.30;99.90;;;;;;5108036;28;19925;-67
2022/11/02 13:06:59;;;;;;;;;;;14.20;99.90;;;;;;5057576;28;20018;-66
2022/11/02 13:09:29;;;;;;;;;;;14.10;99.90;;;;;;5074333;28;19924;-66
2022/11/02 13:12:02;;;;;;;;;;;14.10;99.90;;;;;;5073884;28;19928;-66
2022/11/02 13:14:33;;;;;;;;;;;14.10;99.90;;;;;;5108382;28;19924;-66
2022/11/02 13:17:02;;;;;;;;;;;14.10;99.90;;;;;;5090932;28;19924;-65
2022/11/02 13:19:50;;;;;;;;;;;14.10;99.90;;;;;;5107881;28;20324;-71
2022/11/02 13:22:18;;;;;;;;;;;14.10;99.90;;;;;;5070268;28;19950;-68
2022/11/02 13:24:46;;;;;;;;;;;14.10;99.90;;;;;;5073799;28;19932;-70
2022/11/02 13:27:25;;;;;;;;;;;14.10;99.90;;;;;;5107809;28;20411;-65
2022/11/02 13:29:51;;;;;;;;;;;14.10;99.90;;;;;;5073888;28;19997;-65
2022/11/02 13:32:23;;;;;;;;;;;14.00;99.90;;;;;;5073773;28;20287;-65
2022/11/02 13:34:51;;;;;;;;;;;14.10;99.90;;;;;;5073559;28;19980;-65
2022/11/02 13:37:24;;;;;;;;;;;14.10;99.90;;;;;;5073869;28;19924;-65
2022/11/02 13:39:58;;;;;;;;;;;14.10;99.90;;;;;;5090627;28;20419;-65
2022/11/02 13:42:26;;;;;;;;;;;14.00;99.90;;;;;;5074883;28;20272;-64
2022/11/02 13:45:04;;;;;;;;;;;14.00;99.90;;;;;;5074374;28;20529;-64
2022/11/02 13:47:29;;;;;;;;;;;14.00;99.90;;;;;;5073758;28;19940;-65
2022/11/02 13:49:56;;;;;;;;;;;13.90;99.90;;;;;;5074345;28;20349;-67
2022/11/02 13:52:21;;;;;;;;;;;13.90;99.90;;;;;;5073595;28;19924;-64
2022/11/02 13:54:55;;;;;;;;;;;13.80;99.90;;;;;;5073335;28;20289;-65
2022/11/02 13:57:39;;;;;;;;;;;13.80;99.90;;;;;;5073719;28;19932;-65
2022/11/02 14:00:23;;;;;;;;;;;13.80;99.90;;;;;;5072917;28;19924;-64
2022/11/02 14:02:52;;;;;;;;;;;13.90;99.90;;;;;;5073219;28;20022;-68
2022/11/02 14:05:23;;;;;;;;;;;13.80;99.90;;;;;;5074268;28;20314;-63
2022/11/02 14:07:49;;;;;;;;;;;13.80;99.90;;;;;;5074731;28;19929;-64
2022/11/02 14:10:16;;;;;;;;;;;13.80;99.90;;;;;;5074387;28;19925;-65
2022/11/02 14:12:43;;;;;;;;;;;13.80;99.90;;;;;;5107280;28;19931;-64
2022/11/02 14:15:12;;;;;;;;;;;13.80;99.90;;;;;;5072639;28;20437;-65
2022/11/02 14:17:53;;;;;;;;;;;13.70;99.90;;;;;;5089998;28;19924;-64
2022/11/02 14:20:39;;;;;;;;;;;13.70;99.90;;;;;;5106874;28;19978;-64
2022/11/02 14:23:08;;;;;;;;;;;13.70;99.90;;;;;;5072715;28;19975;-65
2022/11/02 14:25:50;;;;;;;;;;;13.80;99.90;;;;;;5074043;28;19927;-63
2022/11/02 14:28:36;;;;;;;;;;;13.80;99.90;;;;;;5106873;28;19928;-65
2022/11/02 14:31:02;;;;;;;;;;;13.80;99.90;;;;;;5072326;28;19925;-64
2022/11/02 14:33:46;;;;;;;;;;;13.70;99.90;;;;;;5073920;28;19931;-65
2022/11/02 14:36:14;;;;;;;;;;;13.80;99.90;;;;;;5072824;28;20015;-65
2022/11/02 14:39:05;;;;;;;;;;;13.80;99.90;;;;;;5072743;28;20448;-65